Time;durP1;ratioP1;P1;durP2;ratioP2;P2;SDS_P1;SDS_P2;PMS_P1;PMS_P2;Temp;Humidity;BMP_temperature;BMP_pressure;BME280_temperature;BME280_humidity;BME280_pressure;Samples;Min_cycle;Max_cycle;Signal;HPM_P1;HPM_P2
2021/04/29 05:10:30;;;;;;;;;;;;;;;5.81;99.41;97404.27;1775527;77;21085;31
2021/04/29 05:13:01;;;;;;;;;;;;;;;5.82;99.72;97404.56;1646003;86;20852;-69
2021/04/29 05:15:29;;;;;;;;;;;;;;;5.89;99.69;97407.90;1675186;85;20505;-67
2021/04/29 05:17:58;;;;;;;;;;;;;;;5.97;100.00;97411.49;1674150;84;20426;-70
2021/04/29 05:20:26;;;;;;;;;;;;;;;6.10;100.00;97408.68;1672597;84;20478;-72
2021/04/29 05:22:54;;;;;;;;;;;;;;;6.25;100.00;97413.47;1691642;83;21899;-69
2021/04/29 05:25:25;;;;;;;;;;;;;;;6.36;98.16;97417.09;1670002;84;20807;-72
2021/04/29 05:27:53;;;;;;;;;;;;;;;6.45;97.54;97417.05;1666798;84;20336;-69
2021/04/29 05:30:22;;;;;;;;;;;;;;;6.56;97.08;97417.05;1673243;83;20431;-72
2021/04/29 05:32:50;;;;;;;;;;;;;;;6.68;94.99;97419.68;1674712;84;20482;-70
2021/04/29 05:35:18;;;;;;;;;;;;;;;6.75;94.48;97415.64;1671571;84;21967;-70
2021/04/29 05:37:46;;;;;;;;;;;;;;;6.85;93.75;97417.95;1666366;85;20576;-69
2021/04/29 05:40:14;;;;;;;;;;;;;;;6.94;93.73;97419.70;1681162;84;20593;-70
2021/04/29 05:42:44;;;;;;;;;;;;;;;7.05;93.46;97421.52;1673009;84;20269;-68
2021/04/29 05:45:12;;;;;;;;;;;;;;;7.14;92.31;97418.02;1674919;84;20602;-62
2021/04/29 05:47:40;;;;;;;;;;;;;;;7.20;90.82;97426.27;1668292;83;21935;-66
2021/04/29 05:50:09;;;;;;;;;;;;;;;7.21;90.99;97426.02;1680766;84;20565;-65
2021/04/29 05:52:38;;;;;;;;;;;;;;;7.28;90.70;97433.72;1674050;84;20510;-71
2021/04/29 05:55:07;;;;;;;;;;;;;;;7.34;91.14;97434.92;1670566;83;20582;-66
2021/04/29 05:57:35;;;;;;;;;;;;;;;7.48;90.10;97433.34;1685405;83;20484;-72
2021/04/29 06:00:05;;;;;;;;;;;;;;;7.56;89.40;97428.55;1674043;83;20935;-69
2021/04/29 06:02:35;;;;;;;;;;;;;;;7.61;88.52;97420.79;1671751;84;20482;-74
2021/04/29 06:05:04;;;;;;;;;;;;;;;7.65;88.04;97426.34;1673621;84;20494;-68
2021/04/29 06:07:32;;;;;;;;;;;;;;;7.68;87.57;97424.06;1672396;84;20481;-69
2021/04/29 06:10:00;;;;;;;;;;;;;;;7.75;87.46;97433.07;1671341;84;20528;-69
2021/04/29 06:12:28;;;;;;;;;;;;;;;7.89;87.57;97434.89;1678627;83;21190;-65
2021/04/29 06:14:56;;;;;;;;;;;;;;;8.03;86.92;97431.74;1714418;82;20484;-67
2021/04/29 06:17:24;;;;;;;;;;;;;;;8.15;85.93;97420.69;1719591;82;20242;-70
2021/04/29 06:19:52;;;;;;;;;;;;;;;8.26;85.79;97432.13;1715763;82;20576;-65
2021/04/29 06:22:20;;;;;;;;;;;;;;;8.37;85.29;97429.17;1711448;82;20490;-71
2021/04/29 06:24:48;;;;;;;;;;;;;;;8.49;84.68;97426.77;1725540;81;21188;-64
2021/04/29 06:27:16;;;;;;;;;;;;;;;8.59;83.96;97423.48;1675627;83;20498;-67
2021/04/29 06:29:44;;;;;;;;;;;;;;;8.64;83.50;97421.48;1689674;83;20484;-68
2021/04/29 06:32:12;;;;;;;;;;;;;;;8.70;83.23;97426.55;1708578;82;20585;-69
2021/04/29 06:34:42;;;;;;;;;;;;;;;8.76;82.86;97422.17;1694255;83;20713;-69
2021/04/29 06:37:10;;;;;;;;;;;;;;;8.84;82.60;97420.45;1691334;83;21903;-66
2021/04/29 06:39:38;;;;;;;;;;;;;;;8.91;81.70;97425.00;1697118;82;20560;-67
2021/04/29 06:42:06;;;;;;;;;;;;;;;8.93;81.80;97421.09;1691525;83;20377;-64
2021/04/29 06:44:34;;;;;;;;;;;;;;;8.92;81.39;97416.91;1694062;83;20493;-65
2021/04/29 06:47:02;;;;;;;;;;;;;;;8.85;81.95;97415.49;1701627;82;20692;-67
2021/04/29 06:49:31;;;;;;;;;;;;;;;8.85;81.83;97408.94;1697899;82;22012;-70
2021/04/29 06:51:59;;;;;;;;;;;;;;;8.84;81.22;97413.91;1698697;83;20180;-67
2021/04/29 06:54:26;;;;;;;;;;;;;;;8.76;81.29;97414.31;1700070;83;20409;-67
2021/04/29 06:56:54;;;;;;;;;;;;;;;8.72;81.37;97416.60;1695949;83;20229;-70
2021/04/29 06:59:22;;;;;;;;;;;;;;;8.66;81.35;97425.42;1698694;83;20583;-72
2021/04/29 07:01:51;;;;;;;;;;;;;;;8.65;81.40;97426.97;1698619;82;22079;-69
2021/04/29 07:04:18;;;;;;;;;;;;;;;8.61;81.90;97426.16;1722353;82;20399;-69
2021/04/29 07:06:47;;;;;;;;;;;;;;;8.57;82.54;97427.66;1691012;83;20637;-69
2021/04/29 07:09:14;;;;;;;;;;;;;;;8.55;82.92;97425.02;1678845;83;20936;-67
2021/04/29 07:11:42;;;;;;;;;;;;;;;8.53;83.35;97423.14;1709399;82;20581;-69
2021/04/29 07:14:11;;;;;;;;;;;;;;;8.54;84.20;97426.05;1704940;81;21954;-69
2021/04/29 07:16:38;;;;;;;;;;;;;;;8.57;84.54;97421.10;1706095;83;20477;-69
2021/04/29 07:19:06;;;;;;;;;;;;;;;8.61;83.86;97423.53;1707576;83;20628;-67
2021/04/29 07:21:34;;;;;;;;;;;;;;;8.64;83.88;97426.72;1705341;81;20492;-69
2021/04/29 07:24:03;;;;;;;;;;;;;;;8.65;84.56;97425.66;1682129;83;20754;-69
2021/04/29 07:26:33;;;;;;;;;;;;;;;8.69;84.37;97428.09;1711098;81;21999;-71
2021/04/29 07:29:04;;;;;;;;;;;;;;;8.75;84.54;97424.51;1712400;82;20332;-66
2021/04/29 07:31:32;;;;;;;;;;;;;;;8.83;83.75;97424.90;1699831;82;20514;-70
2021/04/29 07:34:02;;;;;;;;;;;;;;;8.85;83.35;97429.39;1699406;82;20545;-69
2021/04/29 07:36:30;;;;;;;;;;;;;;;8.87;82.74;97433.84;1710054;82;20660;-67
2021/04/29 07:38:59;;;;;;;;;;;;;;;8.84;82.72;97429.11;1732890;82;21885;-68
2021/04/29 07:41:28;;;;;;;;;;;;;;;8.84;82.58;97428.31;1718172;82;20496;-68
2021/04/29 07:43:58;;;;;;;;;;;;;;;8.85;82.81;97422.84;1701742;83;20134;-66
2021/04/29 07:46:27;;;;;;;;;;;;;;;8.85;82.59;97427.28;1700935;83;20318;-72
2021/04/29 07:48:55;;;;;;;;;;;;;;;8.89;83.17;97433.09;1708225;83;20602;-68
2021/04/29 07:51:23;;;;;;;;;;;;;;;8.95;83.66;97430.02;1705249;83;21970;-69
2021/04/29 07:53:50;;;;;;;;;;;;;;;9.04;83.82;97433.83;1706612;83;20480;-67
2021/04/29 07:56:19;;;;;;;;;;;;;;;9.15;83.14;97438.16;1710734;82;20476;-67
2021/04/29 07:58:47;;;;;;;;;;;;;;;9.24;82.32;97434.08;1681624;82;20402;-67
2021/04/29 08:01:15;;;;;;;;;;;;;;;9.30;82.26;97434.92;1702372;83;20591;-69
2021/04/29 08:03:44;;;;;;;;;;;;;;;9.41;82.20;97430.09;1702304;82;21773;-73
2021/04/29 08:06:12;;;;;;;;;;;;;;;9.50;80.94;97420.77;1706069;82;20423;-70
2021/04/29 08:08:42;;;;;;;;;;;;;;;9.59;80.86;97428.97;1695778;82;20512;-69
2021/04/29 08:11:15;;;;;;;;;;;;;;;9.72;80.53;97424.16;1706353;81;20516;-67
2021/04/29 08:13:40;;;;;;;;;;;;;;;9.86;79.96;97428.49;1705903;81;20862;-66
2021/04/29 08:16:08;;;;;;;;;;;;;;;9.99;79.51;97419.42;1707284;81;22077;-71
2021/04/29 08:18:37;;;;;;;;;;;;;;;10.13;78.75;97429.27;1708606;82;20490;-68
2021/04/29 08:21:07;;;;;;;;;;;;;;;10.23;78.58;97428.58;1715301;82;20398;-70
2021/04/29 08:23:35;;;;;;;;;;;;;;;10.36;77.87;97424.24;1714043;81;20520;-69
2021/04/29 08:26:03;;;;;;;;;;;;;;;10.47;77.50;97423.27;1705707;83;20815;-70
2021/04/29 08:28:31;;;;;;;;;;;;;;;10.57;77.15;97423.88;1672806;83;21926;-68
2021/04/29 08:30:59;;;;;;;;;;;;;;;10.66;77.22;97424.20;1702097;82;20583;-71
2021/04/29 08:33:27;;;;;;;;;;;;;;;10.76;77.18;97430.30;1700380;82;20497;-70
2021/04/29 08:35:57;;;;;;;;;;;;;;;10.83;76.10;97430.87;1716190;82;20483;-69
2021/04/29 08:38:25;;;;;;;;;;;;;;;10.87;75.92;97430.64;1712655;82;20622;-71
2021/04/29 08:40:53;;;;;;;;;;;;;;;10.95;74.82;97422.77;1721482;81;21833;-75
2021/04/29 08:43:21;;;;;;;;;;;;;;;10.95;74.82;97427.52;1706005;83;20693;-74
2021/04/29 08:45:49;;;;;;;;;;;;;;;10.95;75.53;97424.09;1715977;83;20535;-68
2021/04/29 08:48:22;;;;;;;;;;;;;;;10.99;75.12;97419.92;1716877;82;20588;-69
2021/04/29 08:50:51;;;;;;;;;;;;;;;11.03;74.17;97416.24;1708876;81;20741;-70
2021/04/29 08:53:19;;;;;;;;;;;;;;;11.02;74.00;97412.84;1690717;82;21894;-71
2021/04/29 08:55:46;;;;;;;;;;;;;;;11.06;74.41;97415.22;1691758;82;20541;-71
2021/04/29 08:58:15;;;;;;;;;;;;;;;11.08;73.87;97409.72;1695929;82;20583;-72
2021/04/29 09:00:43;;;;;;;;;;;;;;;11.12;74.52;97409.45;1696809;82;20568;-73
2021/04/29 09:03:14;;;;;;;;;;;;;;;11.18;73.98;97411.06;1714400;81;20617;-68
2021/04/29 09:05:47;;;;;;;;;;;;;;;11.19;74.33;97413.44;1732272;81;21982;-68
2021/04/29 09:08:14;;;;;;;;;;;;;;;11.28;74.61;97417.17;1710979;81;20612;-65
2021/04/29 09:10:42;;;;;;;;;;;;;;;11.40;74.50;97411.68;1715152;82;20588;-69
2021/04/29 09:13:15;;;;;;;;;;;;;;;11.48;73.92;97407.77;1714208;81;20430;-73
2021/04/29 09:15:43;;;;;;;;;;;;;;;11.55;74.18;97410.42;1717617;81;20871;-71
2021/04/29 09:18:18;;;;;;;;;;;;;;;11.66;74.32;97405.98;1715547;81;21684;-69
2021/04/29 09:20:55;;;;;;;;;;;;;;;11.77;73.40;97393.13;1729888;81;20528;-73
2021/04/29 09:23:34;;;;;;;;;;;;;;;11.91;73.16;97404.73;1724907;81;20200;-71
2021/04/29 09:26:05;;;;;;;;;;;;;;;12.07;72.91;97403.71;1726750;81;20498;-71
2021/04/29 09:28:46;;;;;;;;;;;;;;;12.16;70.99;97399.24;1715405;81;20541;-69
2021/04/29 09:31:24;;;;;;;;;;;;;;;12.18;71.30;97399.75;1724700;81;21183;-67
2021/04/29 09:34:01;;;;;;;;;;;;;;;12.24;71.21;97396.09;1728684;81;20291;-65
2021/04/29 09:36:33;;;;;;;;;;;;;;;12.31;71.27;97403.99;1719798;81;20596;-66
2021/04/29 09:39:06;;;;;;;;;;;;;;;12.46;70.75;97406.59;1714393;81;20502;-69
2021/04/29 09:41:46;;;;;;;;;;;;;;;12.53;70.08;97402.41;1714626;81;20599;-67
2021/04/29 09:44:16;;;;;;;;;;;;;;;12.60;70.25;97397.64;1715078;81;21906;-67
2021/04/29 09:46:46;;;;;;;;;;;;;;;12.74;69.73;97396.04;1714226;81;20509;-67
2021/04/29 09:49:23;;;;;;;;;;;;;;;12.90;69.15;97391.50;1715859;80;33195;-70
2021/04/29 09:51:51;;;;;;;;;;;;;;;13.08;69.04;97392.78;1713895;80;20563;-66
2021/04/29 09:54:28;;;;;;;;;;;;;;;13.28;69.13;97391.41;1707712;81;20640;-65
2021/04/29 09:57:04;;;;;;;;;;;;;;;13.48;68.39;97385.23;1711075;81;20776;-66
2021/04/29 09:59:46;;;;;;;;;;;;;;;13.62;67.38;97391.50;1731171;81;20507;-68
2021/04/29 10:02:13;;;;;;;;;;;;;;;13.73;67.48;97392.25;1724450;81;20461;-66
2021/04/29 10:04:42;;;;;;;;;;;;;;;13.85;66.92;97386.87;1716381;81;20563;-66
2021/04/29 10:07:10;;;;;;;;;;;;;;;13.94;66.80;97383.92;1724901;80;20659;-65
2021/04/29 10:09:38;;;;;;;;;;;;;;;14.08;65.82;97392.80;1728724;81;21846;-68
2021/04/29 10:12:07;;;;;;;;;;;;;;;14.19;64.98;97394.83;1729757;81;20495;-66
2021/04/29 10:14:43;;;;;;;;;;;;;;;14.30;64.86;97392.91;1715702;81;20495;-65
2021/04/29 10:17:12;;;;;;;;;;;;;;;14.39;65.14;97386.78;1711084;81;20611;-66
2021/04/29 10:19:46;;;;;;;;;;;;;;;14.45;64.28;97384.88;1713796;81;20778;-66
2021/04/29 10:22:15;;;;;;;;;;;;;;;14.47;64.44;97379.31;1737805;81;21128;-66
2021/04/29 10:24:44;;;;;;;;;;;;;;;14.48;64.21;97378.26;1721212;81;20505;-67
2021/04/29 10:27:14;;;;;;;;;;;;;;;14.57;64.08;97376.03;1721503;81;20564;-67
2021/04/29 10:29:43;;;;;;;;;;;;;;;14.65;63.75;97369.34;1728663;81;20570;-67
2021/04/29 10:32:13;;;;;;;;;;;;;;;14.69;62.99;97368.53;1718551;81;20607;-68
2021/04/29 10:34:47;;;;;;;;;;;;;;;14.76;63.18;97368.20;1722945;81;21873;-69
2021/04/29 10:37:20;;;;;;;;;;;;;;;14.90;63.42;97362.48;1731701;81;20232;-66
2021/04/29 10:39:58;;;;;;;;;;;;;;;15.09;63.15;97349.30;1730931;81;20472;-67
2021/04/29 10:42:30;;;;;;;;;;;;;;;15.27;61.68;97350.41;1721999;81;20587;-67
2021/04/29 10:45:00;;;;;;;;;;;;;;;15.33;60.99;97340.00;1744108;81;20550;-68
2021/04/29 10:47:30;;;;;;;;;;;;;;;15.43;61.68;97345.15;1729613;81;21855;-66
2021/04/29 10:50:10;;;;;;;;;;;;;;;15.54;61.50;97335.50;1726757;81;20598;-68
2021/04/29 10:52:50;;;;;;;;;;;;;;;15.67;62.14;97334.53;1718647;81;21054;-66
2021/04/29 10:55:24;;;;;;;;;;;;;;;15.80;61.95;97330.61;1725565;81;20386;-68
2021/04/29 10:57:52;;;;;;;;;;;;;;;15.97;61.64;97331.42;1738669;81;20608;-68
2021/04/29 11:00:20;;;;;;;;;;;;;;;16.07;61.01;97327.80;1733628;81;22083;-69
2021/04/29 11:03:05;;;;;;;;;;;;;;;16.16;60.54;97320.77;1729731;81;20465;-68
2021/04/29 11:05:34;;;;;;;;;;;;;;;16.15;59.62;97321.84;1734359;81;20501;-67
2021/04/29 11:08:09;;;;;;;;;;;;;;;16.05;60.76;97323.35;1733453;81;20615;-69
2021/04/29 11:10:37;;;;;;;;;;;;;;;16.01;61.05;97322.59;1723248;81;20780;-69
2021/04/29 11:13:08;;;;;;;;;;;;;;;16.05;61.22;97310.89;1692892;82;21869;-69
2021/04/29 11:15:38;;;;;;;;;;;;;;;16.10;60.48;97309.47;1720496;81;20471;-68
2021/04/29 11:18:19;;;;;;;;;;;;;;;16.12;60.42;97302.56;1721550;81;20489;-69
2021/04/29 11:20:58;;;;;;;;;;;;;;;16.06;60.15;97299.75;1718392;81;20232;-69
2021/04/29 11:23:45;;;;;;;;;;;;;;;16.08;61.70;97302.87;1718907;81;20515;-68
2021/04/29 11:26:16;;;;;;;;;;;;;;;16.14;60.39;97296.41;1722263;81;21864;-67
2021/04/29 11:28:44;;;;;;;;;;;;;;;16.14;61.59;97287.13;1699309;82;20613;-66
2021/04/29 11:31:12;;;;;;;;;;;;;;;16.18;60.29;97286.81;1721298;81;20580;-68
2021/04/29 11:33:48;;;;;;;;;;;;;;;16.10;60.61;97286.15;1719759;81;20602;-69
2021/04/29 11:36:21;;;;;;;;;;;;;;;16.08;62.62;97281.13;1719428;81;20573;-70
2021/04/29 11:39:06;;;;;;;;;;;;;;;16.20;61.96;97274.84;1724058;81;22577;-68
2021/04/29 11:41:31;;;;;;;;;;;;;;;16.22;61.54;97280.62;1714422;81;20502;-67
2021/04/29 11:44:01;;;;;;;;;;;;;;;16.21;61.14;97277.72;1721414;81;20608;-69
2021/04/29 11:46:30;;;;;;;;;;;;;;;16.17;61.15;97270.65;1717242;81;20601;-69
2021/04/29 11:49:03;;;;;;;;;;;;;;;16.14;60.99;97265.37;1733683;81;20493;-69
2021/04/29 11:51:37;;;;;;;;;;;;;;;16.10;61.25;97263.62;1726934;81;21937;-67
2021/04/29 11:54:07;;;;;;;;;;;;;;;16.06;61.44;97256.02;1711453;81;20571;-70
2021/04/29 11:56:42;;;;;;;;;;;;;;;16.07;62.29;97246.95;1719895;81;20499;-67
2021/04/29 11:59:11;;;;;;;;;;;;;;;16.16;62.27;97246.54;1742503;81;20406;-67
2021/04/29 12:01:39;;;;;;;;;;;;;;;16.28;63.26;97243.65;1741907;81;21492;-68
2021/04/29 12:04:18;;;;;;;;;;;;;;;16.45;63.07;97236.45;1721036;81;20970;-68
2021/04/29 12:06:52;;;;;;;;;;;;;;;16.62;62.49;97241.99;1721911;81;20746;-67
2021/04/29 12:09:21;;;;;;;;;;;;;;;16.77;62.13;97243.02;1728140;81;20525;-66
2021/04/29 12:11:50;;;;;;;;;;;;;;;16.79;60.70;97239.50;1720390;81;20505;-68
2021/04/29 12:14:22;;;;;;;;;;;;;;;16.76;60.26;97242.77;1703494;82;20818;-66
2021/04/29 12:16:52;;;;;;;;;;;;;;;16.82;59.98;97242.66;1710870;81;21956;-67
2021/04/29 12:19:27;;;;;;;;;;;;;;;16.96;61.22;97243.42;1734843;81;20404;-65
2021/04/29 12:21:55;;;;;;;;;;;;;;;17.18;61.40;97229.66;1729153;81;20490;-70
2021/04/29 12:24:23;;;;;;;;;;;;;;;17.46;60.52;97230.34;1719236;81;20582;-70
2021/04/29 12:26:51;;;;;;;;;;;;;;;17.70;59.95;97222.11;1701064;82;20610;-70
2021/04/29 12:29:20;;;;;;;;;;;;;;;17.84;58.52;97222.04;1723387;81;22049;-68
2021/04/29 12:31:56;;;;;;;;;;;;;;;17.87;57.55;97213.44;1730289;81;20488;-69
2021/04/29 12:34:25;;;;;;;;;;;;;;;17.80;57.92;97205.11;1720761;82;20587;-69
2021/04/29 12:37:04;;;;;;;;;;;;;;;17.77;58.04;97207.85;1712570;83;20553;-69
2021/04/29 12:39:34;;;;;;;;;;;;;;;17.74;58.78;97202.34;1722164;81;20853;-69
2021/04/29 12:42:05;;;;;;;;;;;;;;;17.73;57.75;97203.43;1724646;81;22031;-66
2021/04/29 12:44:38;;;;;;;;;;;;;;;17.73;58.27;97207.41;1727403;81;20588;-67
2021/04/29 12:47:07;;;;;;;;;;;;;;;17.78;58.49;97199.34;1726043;81;20565;-68
2021/04/29 12:49:37;;;;;;;;;;;;;;;17.88;58.71;97193.75;1727248;81;20465;-66
2021/04/29 12:52:10;;;;;;;;;;;;;;;18.07;58.77;97193.00;1731373;81;20891;-66
2021/04/29 12:54:38;;;;;;;;;;;;;;;18.29;58.01;97193.48;1722549;81;22070;-66
2021/04/29 12:57:06;;;;;;;;;;;;;;;18.47;57.64;97191.10;1723634;81;20500;-66
2021/04/29 12:59:45;;;;;;;;;;;;;;;18.60;57.17;97191.55;1718714;81;20488;-65
2021/04/29 13:02:13;;;;;;;;;;;;;;;18.65;56.10;97194.09;1742622;82;20542;-67
2021/04/29 13:04:41;;;;;;;;;;;;;;;18.63;55.97;97189.62;1726362;81;20707;-66
2021/04/29 13:07:09;;;;;;;;;;;;;;;18.65;55.59;97185.32;1724969;81;21915;-68
2021/04/29 13:09:39;;;;;;;;;;;;;;;18.61;56.25;97193.67;1724739;81;20864;-66
2021/04/29 13:12:14;;;;;;;;;;;;;;;18.54;55.77;97190.10;1728109;81;20602;-63
2021/04/29 13:14:42;;;;;;;;;;;;;;;18.42;56.04;97193.91;1716478;81;20492;-65
2021/04/29 13:17:16;;;;;;;;;;;;;;;18.32;56.47;97190.98;1697420;84;20618;-65
2021/04/29 13:19:46;;;;;;;;;;;;;;;18.31;56.41;97195.27;1715832;82;21955;-65
2021/04/29 13:22:15;;;;;;;;;;;;;;;18.30;56.56;97191.81;1702601;83;20484;-65
2021/04/29 13:24:44;;;;;;;;;;;;;;;18.27;56.31;97191.13;1708085;82;20509;-64
2021/04/29 13:27:12;;;;;;;;;;;;;;;18.20;56.25;97188.66;1692380;83;20683;-65
2021/04/29 13:29:42;;;;;;;;;;;;;;;18.13;56.47;97190.44;1685094;84;20605;-65
2021/04/29 13:32:10;;;;;;;;;;;;;;;18.10;56.98;97187.59;1691741;82;21909;-66
2021/04/29 13:34:39;;;;;;;;;;;;;;;18.08;56.95;97189.80;1706196;83;20392;-63
2021/04/29 13:37:09;;;;;;;;;;;;;;;18.05;57.13;97193.05;1689333;82;20483;-63
2021/04/29 13:39:39;;;;;;;;;;;;;;;18.04;57.24;97192.81;1706965;82;20612;-65
2021/04/29 13:42:07;;;;;;;;;;;;;;;18.05;57.63;97195.17;1703153;82;20520;-66
2021/04/29 13:44:34;;;;;;;;;;;;;;;18.05;57.76;97197.05;1704881;82;20795;-66
2021/04/29 13:47:03;;;;;;;;;;;;;;;18.06;57.91;97197.29;1701959;82;20518;-65
2021/04/29 13:49:35;;;;;;;;;;;;;;;18.02;58.14;97198.43;1672084;84;20482;-65
2021/04/29 13:52:03;;;;;;;;;;;;;;;17.93;57.71;97184.33;1681777;84;20657;-66
2021/04/29 13:54:31;;;;;;;;;;;;;;;17.85;58.12;97183.73;1688860;83;20494;-64
2021/04/29 13:56:59;;;;;;;;;;;;;;;17.79;58.53;97188.37;1705662;83;22104;-66
2021/04/29 13:59:30;;;;;;;;;;;;;;;17.71;58.63;97186.48;1701632;83;20485;-61
2021/04/29 14:01:58;;;;;;;;;;;;;;;17.66;58.77;97187.91;1703337;82;20131;-66
2021/04/29 14:04:27;;;;;;;;;;;;;;;17.58;58.84;97189.18;1711623;83;20700;-66
2021/04/29 14:06:55;;;;;;;;;;;;;;;17.54;59.23;97195.09;1709542;82;20606;-60
2021/04/29 14:09:24;;;;;;;;;;;;;;;17.50;59.05;97188.83;1708232;82;22116;-59
2021/04/29 14:11:53;;;;;;;;;;;;;;;17.50;59.00;97185.38;1700269;82;20488;-60
2021/04/29 14:14:21;;;;;;;;;;;;;;;17.50;59.11;97186.16;1708852;82;20389;-60
2021/04/29 14:16:48;;;;;;;;;;;;;;;17.46;59.02;97189.71;1712635;82;20558;-59
2021/04/29 14:19:18;;;;;;;;;;;;;;;17.43;59.35;97183.13;1712659;82;20607;-59
2021/04/29 14:21:46;;;;;;;;;;;;;;;17.42;58.99;97184.77;1712775;82;21899;-60
2021/04/29 14:24:14;;;;;;;;;;;;;;;17.39;59.40;97178.19;1712838;83;20479;-60
